Time;durP1;ratioP1;P1;durP2;ratioP2;P2;SDS_P1;SDS_P2;PMS_P1;PMS_P2;Temp;Humidity;BMP_temperature;BMP_pressure;BME280_temperature;BME280_humidity;BME280_pressure;Samples;Min_cycle;Max_cycle;Signal;HPM_P1;HPM_P2
2021/06/09 00:00:50;;;;;;;16.02;12.10;;;;;;;13.13;76.60;98292.06;1795336;79;20867;-76
2021/06/09 00:03:17;;;;;;;16.70;11.95;;;;;;;13.11;76.05;98290.19;1790594;78;21164;-76
2021/06/09 00:05:43;;;;;;;17.92;13.45;;;;;;;13.03;76.37;98292.73;1790657;80;20900;-76
2021/06/09 00:08:09;;;;;;;17.10;11.57;;;;;;;12.93;77.02;98295.82;1790762;79;21438;-76
2021/06/09 00:10:35;;;;;;;14.73;11.30;;;;;;;12.81;77.42;98295.94;1791199;79;21029;-76
2021/06/09 00:13:01;;;;;;;15.65;10.90;;;;;;;12.70;77.72;98296.04;1790926;80;20914;-76
2021/06/09 00:15:27;;;;;;;15.70;11.33;;;;;;;12.65;77.11;98302.91;1790671;78;21745;-76
2021/06/09 00:17:53;;;;;;;14.65;10.68;;;;;;;12.55;76.78;98302.97;1790722;80;21140;-76
2021/06/09 00:20:21;;;;;;;16.67;11.45;;;;;;;12.52;76.68;98303.55;1791427;80;20985;-76
2021/06/09 00:22:47;;;;;;;15.55;11.65;;;;;;;12.56;76.50;98306.50;1791071;80;21037;-76
2021/06/09 00:25:15;;;;;;;16.93;11.38;;;;;;;12.45;80.10;98297.62;1791268;80;20930;-76
2021/06/09 00:27:47;;;;;;;16.00;12.73;;;;;;;12.46;79.63;98303.33;1764285;80;21225;-76
2021/06/09 00:30:17;;;;;;;14.18;10.53;;;;;;;12.43;79.27;98297.92;1790602;78;21324;-76
2021/06/09 00:32:44;;;;;;;16.07;11.83;;;;;;;12.45;77.74;98297.62;1790803;80;21421;-76
2021/06/09 00:35:10;;;;;;;15.65;11.90;;;;;;;12.41;78.58;98298.76;1790708;80;20986;-76
2021/06/09 00:37:36;;;;;;;17.85;11.78;;;;;;;12.32;79.26;98304.55;1790823;79;21078;-76
2021/06/09 00:40:06;;;;;;;15.20;11.28;;;;;;;12.31;78.10;98308.91;1790840;80;21140;-76
2021/06/09 00:42:32;;;;;;;16.37;12.43;;;;;;;12.18;79.52;98302.75;1763806;80;21033;-76
2021/06/09 00:44:58;;;;;;;15.43;11.03;;;;;;;12.13;79.25;98307.66;1790829;78;21418;-76
2021/06/09 00:47:24;;;;;;;15.58;10.65;;;;;;;12.11;78.53;98305.22;1790563;80;21529;-76
2021/06/09 00:49:51;;;;;;;16.02;10.13;;;;;;;12.12;78.08;98305.48;1790549;78;20974;-76
2021/06/09 00:52:25;;;;;;;12.90;10.72;;;;;;;12.07;78.43;98302.82;1791117;79;21029;-76
2021/06/09 00:54:52;;;;;;;17.12;10.03;;;;;;;12.05;78.46;98305.02;1790520;80;21101;-76
2021/06/09 00:57:17;;;;;;;25.92;23.42;;;;;;;12.05;79.11;98309.09;1790988;80;21544;-76
2021/06/09 00:59:44;;;;;;;15.05;12.18;;;;;;;12.06;79.67;98301.75;1790778;79;20930;-76
2021/06/09 01:02:09;;;;;;;14.90;10.95;;;;;;;12.03;81.08;98307.73;1803343;79;21028;-76
2021/06/09 01:04:35;;;;;;;15.93;11.05;;;;;;;11.99;80.36;98299.89;1803086;79;21191;-76
2021/06/09 01:07:03;;;;;;;16.10;10.95;;;;;;;11.96;79.63;98301.80;1803247;79;20893;-76
2021/06/09 01:09:30;;;;;;;14.45;11.48;;;;;;;11.96;80.12;98295.01;1803454;79;20985;-76
2021/06/09 01:11:56;;;;;;;15.95;11.35;;;;;;;11.95;79.55;98299.63;1802838;79;20982;-76
2021/06/09 01:14:23;;;;;;;13.13;9.85;;;;;;;11.92;80.22;98298.03;1803069;79;20950;-76
2021/06/09 01:16:51;;;;;;;12.68;10.90;;;;;;;11.89;79.32;98304.84;1803328;79;21291;-76
2021/06/09 01:19:19;;;;;;;14.45;11.60;;;;;;;11.79;80.22;98308.92;1803006;79;21463;-76
2021/06/09 01:21:46;;;;;;;13.58;10.18;;;;;;;11.74;79.57;98300.83;1802914;79;20969;-76
2021/06/09 01:24:12;;;;;;;15.18;10.28;;;;;;;11.72;77.97;98304.38;1803228;79;21417;-76
2021/06/09 01:26:39;;;;;;;14.58;10.75;;;;;;;11.57;77.84;98295.21;1803131;79;21440;-76
2021/06/09 01:29:05;;;;;;;12.95;9.95;;;;;;;11.52;79.95;98295.77;1802937;79;21344;-76
2021/06/09 01:31:32;;;;;;;11.68;10.10;;;;;;;11.61;79.36;98305.50;1803032;79;21009;-76
2021/06/09 01:34:07;;;;;;;13.22;10.60;;;;;;;11.64;78.80;98304.96;1803001;79;21498;-76
2021/06/09 01:36:39;;;;;;;14.60;10.32;;;;;;;11.60;79.89;98311.47;1803047;79;20977;-77
2021/06/09 01:39:12;;;;;;;16.40;10.72;;;;;;;11.59;79.23;98306.59;1802987;79;20938;-77
2021/06/09 01:41:49;;;;;;;15.83;9.85;;;;;;;11.59;79.35;98310.66;1797362;79;21045;-77
2021/06/09 01:44:15;;;;;;;14.23;10.90;;;;;;;11.53;78.72;98297.39;1803005;79;20957;-76
2021/06/09 01:46:42;;;;;;;19.23;10.68;;;;;;;11.54;78.42;98305.28;1803058;79;21477;-76
2021/06/09 01:49:09;;;;;;;14.10;11.40;;;;;;;11.48;79.21;98300.15;1797993;79;21479;-76
2021/06/09 01:51:36;;;;;;;14.65;10.88;;;;;;;11.46;80.50;98299.63;1803138;79;20934;-76
2021/06/09 01:54:07;;;;;;;12.20;9.75;;;;;;;11.41;80.56;98303.16;1771691;79;22050;-77
2021/06/09 01:56:34;;;;;;;16.80;10.25;;;;;;;11.36;79.42;98297.73;1802959;79;20917;-76
2021/06/09 01:59:12;;;;;;;16.23;10.85;;;;;;;11.24;79.71;98292.64;1771461;79;21033;-76
2021/06/09 02:01:38;;;;;;;;;;;;;;;11.24;79.71;98292.64;1780391;79;21002;-76
2021/06/09 02:04:04;;;;;;;15.90;11.78;;;;;;;11.23;82.10;98301.87;1745654;81;20238;-76
2021/06/09 02:06:30;;;;;;;21.02;14.80;;;;;;;11.25;80.74;98299.69;1787468;80;21212;-76
2021/06/09 02:08:56;;;;;;;24.40;17.55;;;;;;;11.28;79.54;98292.38;1766106;81;21313;-77
2021/06/09 02:11:22;;;;;;;15.25;9.65;;;;;;;11.30;79.39;98302.39;1765857;81;20941;-77
2021/06/09 02:13:48;;;;;;;13.08;9.38;;;;;;;11.30;79.39;98302.39;1765997;81;20984;-76
2021/06/09 02:16:14;;;;;;;12.25;10.48;;;;;;;11.27;80.46;98300.77;1713903;81;20979;-76
2021/06/09 02:18:40;;;;;;;14.35;9.78;;;;;;;11.20;80.76;98298.37;1766103;81;21081;-77
2021/06/09 02:21:08;;;;;;;12.80;8.85;;;;;;;11.22;79.71;98297.54;1766308;81;20963;-77
2021/06/09 02:23:37;;;;;;;14.87;9.65;;;;;;;11.23;78.98;98296.99;1737939;81;20976;-76
2021/06/09 02:26:04;;;;;;;14.50;10.00;;;;;;;11.10;79.91;98287.53;1765866;81;20932;-76
2021/06/09 02:28:31;;;;;;;15.20;11.57;;;;;;;11.10;79.91;98287.53;1738126;81;21051;-76
2021/06/09 02:30:57;;;;;;;13.28;10.85;;;;;;;11.08;80.57;98291.61;1735705;81;21487;-76
2021/06/09 02:33:24;;;;;;;13.30;9.40;;;;;;;10.97;81.57;98290.30;1766125;81;20909;-76
2021/06/09 02:35:52;;;;;;;17.37;10.45;;;;;;;10.93;80.44;98291.11;1766139;81;20963;-76
2021/06/09 02:38:19;;;;;;;12.60;10.53;;;;;;;10.89;80.69;98288.14;1738293;81;21436;-76
2021/06/09 02:40:49;;;;;;;13.58;9.50;;;;;;;10.84;81.48;98290.86;1766225;81;20912;-76
2021/06/09 02:43:15;;;;;;;10.82;9.43;;;;;;;10.80;82.55;98288.44;1765398;81;21343;-77
2021/06/09 02:45:42;;;;;;;14.33;9.58;;;;;;;10.82;81.46;98288.97;1766179;81;20995;-77
2021/06/09 02:48:12;;;;;;;14.40;9.35;;;;;;;10.82;81.53;98286.80;1766091;81;21036;-77
2021/06/09 02:50:38;;;;;;;14.63;10.43;;;;;;;10.81;80.26;98287.89;1766121;81;21024;-77
2021/06/09 02:53:25;;;;;;;15.45;12.03;;;;;;;10.74;81.03;98284.11;1766207;81;21339;-77
2021/06/09 02:56:12;;;;;;;14.60;9.78;;;;;;;10.72;82.21;98284.93;1766262;81;21210;-77
2021/06/09 02:59:16;;;;;;;13.38;9.78;;;;;;;10.75;81.87;98284.37;1765942;81;21467;-78
2021/06/09 03:02:19;;;;;;;13.08;9.43;;;;;;;10.77;80.68;98279.52;1776508;80;21026;-76
2021/06/09 03:04:58;;;;;;;14.93;9.93;;;;;;;10.80;80.99;98290.34;1756122;80;21079;-76
2021/06/09 03:07:32;;;;;;;14.10;10.03;;;;;;;10.83;81.13;98290.59;1782487;80;20915;-77
2021/06/09 03:10:15;;;;;;;13.15;8.98;;;;;;;10.84;79.74;98290.86;1782566;80;21508;-77
2021/06/09 03:13:01;;;;;;;14.50;9.05;;;;;;;10.83;81.12;98291.95;1782380;80;20999;-77
2021/06/09 03:15:29;;;;;;;13.50;9.85;;;;;;;10.93;79.81;98288.39;1781814;80;20974;-77
2021/06/09 03:18:05;;;;;;;16.70;10.10;;;;;;;10.89;80.26;98292.21;1780965;80;20931;-77
2021/06/09 03:20:58;;;;;;;11.28;9.00;;;;;;;10.97;79.84;98297.07;1782585;80;21506;-77
2021/06/09 03:23:41;;;;;;;20.17;11.12;;;;;;;11.05;79.37;98296.24;1782492;80;21400;-76
2021/06/09 03:26:21;;;;;;;13.43;10.50;;;;;;;10.96;80.86;98296.80;1782569;80;21533;-77
2021/06/09 03:29:13;;;;;;;15.68;10.63;;;;;;;10.90;81.84;98292.48;1782456;80;20903;-77
2021/06/09 03:31:46;;;;;;;13.48;10.45;;;;;;;10.94;80.74;98291.40;1782168;80;20983;-78
2021/06/09 03:34:22;;;;;;;14.98;9.98;;;;;;;11.00;79.77;98299.77;1782379;80;21006;-77
2021/06/09 03:36:49;;;;;;;12.43;9.28;;;;;;;10.97;80.71;98300.33;1782378;80;21294;-76
2021/06/09 03:39:15;;;;;;;12.60;10.15;;;;;;;10.93;81.82;98303.30;1782389;80;20990;-76
2021/06/09 03:41:47;;;;;;;12.53;9.55;;;;;;;10.96;80.80;98291.93;1782501;79;21424;-76
2021/06/09 03:44:13;;;;;;;11.88;9.78;;;;;;;10.99;80.37;98297.60;1782361;80;20974;-76
2021/06/09 03:46:39;;;;;;;16.65;10.32;;;;;;;11.02;80.33;98300.30;1782784;80;21549;-76
2021/06/09 03:49:13;;;;;;;12.10;10.28;;;;;;;11.06;80.14;98298.67;1755997;80;21293;-76
2021/06/09 03:51:40;;;;;;;16.40;10.78;;;;;;;11.07;79.81;98292.70;1755854;80;21459;-76
2021/06/09 03:54:07;;;;;;;11.18;9.95;;;;;;;11.07;79.81;98292.70;1782378;80;20923;-76
2021/06/09 03:56:33;;;;;;;15.03;11.38;;;;;;;11.17;79.45;98300.80;1782450;79;20855;-76
2021/06/09 03:59:00;;;;;;;13.03;9.88;;;;;;;11.45;78.75;98306.11;1782497;79;21022;-76
2021/06/09 04:01:35;;;;;;;13.03;9.80;;;;;;;11.45;78.75;98306.11;1787590;80;21343;-76
2021/06/09 04:04:04;;;;;;;15.78;10.18;;;;;;;11.54;78.89;98308.55;1794577;80;21473;-76
2021/06/09 04:06:30;;;;;;;11.95;10.32;;;;;;;11.54;78.89;98308.55;1794755;80;21002;-76
2021/06/09 04:08:56;;;;;;;13.95;9.68;;;;;;;11.52;80.02;98308.80;1794738;80;20894;-76
2021/06/09 04:11:22;;;;;;;17.20;10.35;;;;;;;11.51;80.04;98302.30;1794892;80;20883;-76
2021/06/09 04:13:48;;;;;;;14.00;9.53;;;;;;;11.49;80.19;98309.36;1794993;80;21157;-76
2021/06/09 04:16:14;;;;;;;14.87;11.33;;;;;;;11.52;79.41;98308.80;1794687;80;21352;-76
2021/06/09 04:18:40;;;;;;;14.18;11.05;;;;;;;11.53;79.28;98318.55;1794618;80;21021;-76
2021/06/09 04:21:06;;;;;;;13.98;10.05;;;;;;;11.56;79.21;98317.20;1794696;80;20930;-76
2021/06/09 04:23:32;;;;;;;14.23;10.45;;;;;;;11.59;78.98;98313.38;1795221;80;21643;-76
2021/06/09 04:25:59;;;;;;;19.50;10.20;;;;;;;11.78;79.09;98317.62;1794712;80;21125;-76
2021/06/09 04:28:25;;;;;;;15.20;10.88;;;;;;;12.06;78.40;98310.71;1794702;80;20958;-76
2021/06/09 04:30:52;;;;;;;13.40;10.00;;;;;;;12.33;78.15;98310.23;1794848;80;21020;-76
2021/06/09 04:33:18;;;;;;;13.22;9.55;;;;;;;12.58;77.95;98309.22;1789575;80;21104;-76
2021/06/09 04:35:45;;;;;;;14.55;9.45;;;;;;;12.90;77.61;98307.81;1763704;80;21060;-76
2021/06/09 04:38:16;;;;;;;13.78;9.95;;;;;;;13.01;77.04;98309.34;1794623;80;21081;-76
2021/06/09 04:40:43;;;;;;;18.92;11.35;;;;;;;13.09;76.62;98305.19;1794764;80;21426;-76
2021/06/09 04:43:09;;;;;;;12.47;11.18;;;;;;;13.11;76.38;98307.06;1789623;80;21544;-76
2021/06/09 04:45:35;;;;;;;15.00;10.85;;;;;;;13.15;76.39;98307.54;1794698;80;21072;-76
2021/06/09 04:48:01;;;;;;;13.38;10.43;;;;;;;13.18;75.87;98306.17;1795020;80;20917;-76
2021/06/09 04:50:28;;;;;;;13.72;10.25;;;;;;;13.12;75.79;98308.67;1794870;80;21110;-76
2021/06/09 04:52:54;;;;;;;21.73;11.35;;;;;;;13.08;76.09;98306.29;1794558;80;21537;-76
2021/06/09 04:55:20;;;;;;;14.90;10.40;;;;;;;13.07;76.65;98310.08;1789832;80;21096;-76
2021/06/09 04:57:46;;;;;;;14.95;10.93;;;;;;;13.09;76.94;98306.55;1763498;80;20930;-76
2021/06/09 05:00:14;;;;;;;15.28;11.12;;;;;;;13.13;76.10;98302.13;1794867;80;21112;-76
2021/06/09 05:02:40;;;;;;;13.88;10.43;;;;;;;13.09;75.98;98301.10;1794578;80;21057;-76
2021/06/09 05:05:08;;;;;;;13.18;10.30;;;;;;;13.06;75.97;98309.27;1794832;80;20953;-75
2021/06/09 05:07:34;;;;;;;15.05;10.58;;;;;;;13.09;76.26;98301.91;1794602;80;20970;-75
2021/06/09 05:10:01;;;;;;;14.13;9.88;;;;;;;13.13;76.66;98308.94;1795028;80;20993;-75
2021/06/09 05:12:37;;;;;;;12.15;9.78;;;;;;;13.20;76.62;98317.05;1794585;80;21034;-75
2021/06/09 05:15:07;;;;;;;12.45;10.40;;;;;;;13.27;76.58;98320.79;1794526;80;21214;-76
2021/06/09 05:17:47;;;;;;;11.97;10.60;;;;;;;13.32;76.54;98324.80;1794368;80;20915;-75
2021/06/09 05:20:26;;;;;;;15.05;12.03;;;;;;;13.37;76.64;98325.30;1789815;80;21033;-77
2021/06/09 05:23:08;;;;;;;18.10;11.53;;;;;;;13.45;76.09;98325.47;1786679;80;21060;-76
2021/06/09 05:25:37;;;;;;;17.00;11.18;;;;;;;13.53;75.33;98324.83;1794776;80;21041;-76
2021/06/09 05:28:03;;;;;;;18.15;11.00;;;;;;;13.49;75.17;98327.85;1789580;80;21347;-76
2021/06/09 05:30:29;;;;;;;27.52;13.22;;;;;;;13.51;75.91;98327.03;1795019;80;20961;-76
2021/06/09 05:32:55;;;;;;;22.27;11.33;;;;;;;13.58;76.08;98329.94;1794547;80;21375;-76
2021/06/09 05:35:22;;;;;;;15.93;11.38;;;;;;;13.67;76.13;98326.81;1794892;80;21061;-76
2021/06/09 05:37:48;;;;;;;17.77;10.65;;;;;;;13.85;76.16;98329.33;1763270;80;21095;-76
2021/06/09 05:40:16;;;;;;;22.10;11.88;;;;;;;14.06;74.91;98329.30;1794724;80;21147;-76
2021/06/09 05:42:42;;;;;;;27.73;14.20;;;;;;;14.01;74.43;98329.35;1794682;80;20931;-76
2021/06/09 05:45:12;;;;;;;30.10;14.83;;;;;;;14.08;74.06;98329.80;1794771;80;21013;-76
2021/06/09 05:47:43;;;;;;;18.48;13.95;;;;;;;14.18;73.79;98335.09;1794468;80;21486;-76
2021/06/09 05:50:18;;;;;;;23.12;13.50;;;;;;;14.46;72.91;98329.81;1794248;80;20989;-76
2021/06/09 05:52:48;;;;;;;18.32;12.28;;;;;;;14.81;72.19;98325.68;1794792;80;21134;-75
2021/06/09 05:55:17;;;;;;;21.02;12.55;;;;;;;14.93;71.59;98329.53;1794892;80;20962;-74
2021/06/09 05:57:44;;;;;;;19.92;12.65;;;;;;;14.99;71.60;98327.53;1794614;79;20930;-75
2021/06/09 06:00:11;;;;;;;23.57;12.07;;;;;;;15.31;71.27;98323.13;1763760;80;21442;-76
2021/06/09 06:02:38;;;;;;;22.73;13.10;;;;;;;15.57;70.30;98324.23;1794597;80;21041;-76
2021/06/09 06:05:09;;;;;;;18.05;9.48;;;;;;;15.75;70.42;98323.33;1794686;80;21898;-76
2021/06/09 06:07:35;;;;;;;14.28;8.95;;;;;;;16.17;69.11;98326.77;1794641;80;20915;-76
2021/06/09 06:10:03;;;;;;;14.43;9.40;;;;;;;16.44;67.89;98323.13;1763895;80;21476;-76
2021/06/09 06:12:29;;;;;;;18.42;9.83;;;;;;;16.70;67.41;98323.90;1763971;80;21021;-76
2021/06/09 06:14:55;;;;;;;15.10;9.90;;;;;;;16.96;67.44;98321.31;1794686;80;20957;-76
2021/06/09 06:17:21;;;;;;;25.70;9.98;;;;;;;17.29;67.03;98326.71;1794798;80;21726;-76
2021/06/09 06:19:50;;;;;;;13.25;8.78;;;;;;;17.70;66.10;98322.29;1794652;80;20839;-76
2021/06/09 06:22:18;;;;;;;14.28;9.48;;;;;;;17.98;65.88;98320.08;1794704;80;21324;-76
2021/06/09 06:24:47;;;;;;;19.67;11.10;;;;;;;18.20;65.85;98327.91;1794664;80;20939;-77
2021/06/09 06:27:13;;;;;;;;;;;;;;;18.44;65.62;98324.12;1797622;80;20926;-77
2021/06/09 06:29:39;;;;;;;10.78;9.15;;;;;;;18.48;65.05;98322.92;1794694;80;21114;-77
2021/06/09 06:32:09;;;;;;;9.55;8.50;;;;;;;18.62;64.47;98324.91;1794760;80;20962;-77
2021/06/09 06:34:39;;;;;;;12.05;8.58;;;;;;;18.77;63.50;98325.80;1794959;80;20942;-76
2021/06/09 06:37:06;;;;;;;17.20;8.90;;;;;;;18.92;62.54;98323.13;1794820;80;20926;-77
2021/06/09 06:39:33;;;;;;;15.80;9.28;;;;;;;18.98;62.07;98313.58;1794599;80;21426;-77
2021/06/09 06:41:59;;;;;;;15.10;9.35;;;;;;;19.14;61.87;98320.16;1764072;80;21134;-77
2021/06/09 06:44:26;;;;;;;10.15;8.15;;;;;;;19.38;60.96;98321.50;1794708;80;20923;-77
2021/06/09 06:46:52;;;;;;;13.83;8.20;;;;;;;19.35;60.01;98320.80;1794488;80;20985;-76
2021/06/09 06:49:18;;;;;;;11.57;8.58;;;;;;;19.52;59.62;98322.09;1794602;80;21025;-77
2021/06/09 06:51:46;;;;;;;17.10;8.28;;;;;;;19.68;59.95;98310.00;1795235;80;20923;-77
2021/06/09 06:54:13;;;;;;;10.03;8.18;;;;;;;19.96;59.62;98315.23;1794474;80;21768;-76
2021/06/09 06:56:39;;;;;;;56.45;12.70;;;;;;;20.21;58.84;98315.38;1795235;80;20954;-76
2021/06/09 06:59:05;;;;;;;14.80;8.78;;;;;;;20.37;55.38;98315.58;1794745;80;20934;-76
2021/06/09 07:01:33;;;;;;;14.18;8.83;;;;;;;20.46;56.38;98308.08;1793522;80;21008;-76
2021/06/09 07:04:00;;;;;;;;;;;;;;;20.63;56.17;98309.87;1785139;80;20986;-77
2021/06/09 07:06:26;;;;;;;31.62;11.70;;;;;;;20.81;55.78;98311.30;1756249;80;22061;-77
2021/06/09 07:08:52;;;;;;;14.68;9.05;;;;;;;21.15;56.66;98312.88;1782679;80;21045;-77
2021/06/09 07:11:18;;;;;;;24.43;11.15;;;;;;;21.47;55.74;98309.05;1782721;80;20886;-77
2021/06/09 07:13:44;;;;;;;13.88;9.18;;;;;;;21.69;54.94;98317.63;1782435;80;20922;-77
2021/06/09 07:16:11;;;;;;;19.87;11.75;;;;;;;21.91;55.32;98316.94;1782726;80;21030;-76
2021/06/09 07:18:42;;;;;;;34.85;13.48;;;;;;;22.16;54.70;98315.77;1756016;80;22004;-77
2021/06/09 07:21:05;;;;;;;31.23;13.95;;;;;;;22.61;54.31;98313.32;1782045;80;21022;-76
2021/06/09 07:23:32;;;;;;;35.78;13.98;;;;;;;22.74;54.08;98305.22;1731195;80;20930;-76
2021/06/09 07:25:58;;;;;;;22.25;12.25;;;;;;;22.95;53.60;98305.59;1782168;80;21435;-76
2021/06/09 07:28:26;;;;;;;15.93;9.40;;;;;;;23.00;51.79;98304.77;1782917;79;21410;-76
2021/06/09 07:30:52;;;;;;;44.10;17.37;;;;;;;22.96;52.12;98308.57;1782913;79;21431;-77
2021/06/09 07:33:18;;;;;;;16.27;9.90;;;;;;;22.72;52.97;98301.98;1782325;80;21513;-77
2021/06/09 07:35:44;;;;;;;13.40;8.88;;;;;;;23.11;52.58;98305.03;1782550;79;21084;-77
2021/06/09 07:38:18;;;;;;;14.05;9.30;;;;;;;23.61;51.55;98304.93;1782349;80;21151;-77
2021/06/09 07:40:46;;;;;;;17.27;8.93;;;;;;;24.32;51.20;98302.40;1782624;80;21033;-77
2021/06/09 07:43:17;;;;;;;11.97;8.88;;;;;;;24.73;47.63;98295.32;1726573;80;21817;-77
2021/06/09 07:45:43;;;;;;;13.45;8.60;;;;;;;25.25;48.07;98297.28;1782633;80;21018;-77
2021/06/09 07:48:09;;;;;;;11.33;8.13;;;;;;;25.71;46.94;98293.89;1782521;80;20946;-77
2021/06/09 07:50:40;;;;;;;12.45;8.08;;;;;;;25.93;45.51;98306.12;1782561;80;21486;-77
2021/06/09 07:53:09;;;;;;;20.05;9.95;;;;;;;26.39;43.44;98302.61;1780136;80;20963;-77
2021/06/09 07:55:35;;;;;;;;;;;;;;;26.47;41.79;98299.92;1785249;80;21206;-77
2021/06/09 07:58:02;;;;;;;45.10;13.55;;;;;;;26.35;40.73;98298.97;1781882;79;20175;-77
2021/06/09 08:00:29;;;;;;;12.28;6.90;;;;;;;26.90;43.71;98302.60;1783302;80;21477;-77
2021/06/09 08:02:56;;;;;;;21.77;8.83;;;;;;;27.21;41.43;98303.55;1782365;79;21065;-77
2021/06/09 08:05:24;;;;;;;8.68;7.62;;;;;;;27.91;41.38;98296.18;1756626;80;21034;-77
2021/06/09 08:07:51;;;;;;;9.45;6.62;;;;;;;27.90;37.25;98297.97;1782521;80;21772;-77
2021/06/09 08:10:17;;;;;;;12.98;6.17;;;;;;;27.31;37.36;98297.88;1782482;80;21097;-77
2021/06/09 08:12:43;;;;;;;12.50;7.22;;;;;;;27.69;38.91;98300.81;1756102;80;20875;-77
2021/06/09 08:15:09;;;;;;;14.50;6.92;;;;;;;27.40;37.47;98302.53;1782584;79;20934;-77
2021/06/09 08:17:38;;;;;;;12.25;6.25;;;;;;;27.40;37.08;98291.39;1731167;80;20923;-77
2021/06/09 08:20:04;;;;;;;;;;;;;;;27.80;37.22;98298.91;1784958;80;21326;-76
2021/06/09 08:22:30;;;;;;;9.08;6.15;;;;;;;28.28;36.97;98297.97;1782603;80;20435;-76
2021/06/09 08:24:56;;;;;;;21.57;10.03;;;;;;;28.09;36.65;98298.48;1782646;80;21537;-76
2021/06/09 08:27:22;;;;;;;10.88;6.40;;;;;;;28.93;36.85;98296.48;1782562;80;21469;-77
2021/06/09 08:29:48;;;;;;;17.12;6.53;;;;;;;28.42;33.34;98305.64;1782394;80;20938;-77
2021/06/09 08:32:14;;;;;;;9.80;5.50;;;;;;;29.15;33.95;98297.94;1782413;80;21810;-76
2021/06/09 08:34:40;;;;;;;9.85;5.40;;;;;;;28.38;34.52;98298.08;1782276;80;20926;-77
2021/06/09 08:37:06;;;;;;;9.55;5.75;;;;;;;27.99;34.82;98299.81;1782545;80;21581;-77
2021/06/09 08:39:32;;;;;;;15.15;6.35;;;;;;;28.68;34.42;98298.98;1781490;80;21038;-77
2021/06/09 08:41:58;;;;;;;9.00;5.17;;;;;;;29.43;34.39;98307.72;1782654;79;20891;-77
2021/06/09 08:44:25;;;;;;;7.85;5.22;;;;;;;29.60;32.99;98306.16;1782479;79;21171;-77
2021/06/09 08:46:53;;;;;;;11.00;5.10;;;;;;;30.23;32.27;98302.28;1756040;80;21486;-77
2021/06/09 08:49:19;;;;;;;11.63;8.05;;;;;;;30.23;31.98;98300.89;1782494;80;27057;-78
2021/06/09 08:51:45;;;;;;;9.08;6.33;;;;;;;30.80;32.01;98301.48;1782708;80;21453;-78
2021/06/09 08:54:11;;;;;;;11.57;5.97;;;;;;;30.80;31.44;98302.89;1782860;80;21072;-78
2021/06/09 08:56:38;;;;;;;12.50;5.50;;;;;;;31.03;30.94;98306.56;1782658;80;21050;-78
2021/06/09 08:59:05;;;;;;;5.05;4.17;;;;;;;31.32;30.51;98298.78;1782424;80;20927;-78
2021/06/09 09:01:33;;;;;;;5.67;4.33;;;;;;;30.40;29.21;98303.43;1782899;80;20990;-78
2021/06/09 09:03:59;;;;;;;12.58;5.10;;;;;;;31.28;29.42;98305.03;1793597;80;20981;-78
2021/06/09 09:06:25;;;;;;;7.10;5.53;;;;;;;30.66;29.84;98304.34;1794861;80;21103;-78
2021/06/09 09:08:53;;;;;;;10.48;6.00;;;;;;;31.31;28.73;98301.40;1794522;80;20981;-78
2021/06/09 09:11:20;;;;;;;;;;;;;;;32.46;29.11;98297.72;1797501;80;21056;-78
2021/06/09 09:13:46;;;;;;;7.45;4.47;;;;;;;32.23;27.22;98305.98;1794782;80;20103;-78
2021/06/09 09:16:12;;;;;;;7.10;5.05;;;;;;;32.52;26.86;98304.46;1794846;80;21533;-77
2021/06/09 09:18:44;;;;;;;9.30;4.78;;;;;;;32.46;27.46;98299.13;1794509;80;20973;-78
2021/06/09 09:21:13;;;;;;;7.17;4.90;;;;;;;33.00;28.05;98298.46;1794874;80;21249;-77
2021/06/09 09:23:47;;;;;;;11.60;5.05;;;;;;;31.90;28.04;98306.12;1794572;80;20989;-78
2021/06/09 09:26:33;;;;;;;7.53;5.20;;;;;;;32.87;28.07;98294.02;1794904;80;20979;-78
2021/06/09 09:29:14;;;;;;;8.70;5.67;;;;;;;33.00;27.81;98300.66;1789844;80;20981;-77
2021/06/09 09:31:58;;;;;;;8.95;5.53;;;;;;;32.08;28.11;98304.55;1764000;80;21400;-78
2021/06/09 09:34:46;;;;;;;8.70;6.97;;;;;;;30.80;29.96;98301.48;1794808;80;21305;-78
2021/06/09 09:37:20;;;;;;;11.33;5.97;;;;;;;31.62;29.26;98300.14;1794969;80;20962;-76
2021/06/09 09:39:54;;;;;;;10.82;6.30;;;;;;;32.36;28.25;98297.85;1794688;80;20943;-77
2021/06/09 09:42:34;;;;;;;8.70;6.05;;;;;;;32.48;28.71;98294.52;1787021;80;21212;-77
2021/06/09 09:45:27;;;;;;;21.97;13.47;;;;;;;33.69;27.11;98291.38;1794467;80;21454;-77
2021/06/09 09:48:13;;;;;;;5.67;4.28;;;;;;;33.94;25.74;98293.77;1794450;80;21074;-77
2021/06/09 09:50:49;;;;;;;9.98;5.10;;;;;;;34.01;25.59;98287.20;1794874;80;20974;-77
2021/06/09 09:53:21;;;;;;;6.42;5.58;;;;;;;34.48;23.89;98282.30;1794711;80;20994;-79
2021/06/09 09:56:11;;;;;;;6.53;4.97;;;;;;;35.70;23.60;98289.56;1788560;80;21076;-78
2021/06/09 09:59:01;;;;;;;10.98;3.95;;;;;;;34.75;22.48;98283.53;1794691;80;21025;-77
2021/06/09 10:01:27;;;;;;;6.83;4.87;;;;;;;34.52;23.26;98281.59;1794684;80;21427;-77
2021/06/09 10:03:55;;;;;;;6.60;4.60;;;;;;;35.00;23.11;98282.38;1785620;80;20994;-77
2021/06/09 10:06:24;;;;;;;11.15;4.25;;;;;;;35.99;22.81;98279.00;1782776;80;21073;-77
2021/06/09 10:08:52;;;;;;;7.50;4.83;;;;;;;34.65;23.28;98273.30;1782436;80;21470;-77
2021/06/09 10:11:19;;;;;;;8.75;4.37;;;;;;;31.74;26.81;98282.84;1782326;80;26743;-77
2021/06/09 10:13:46;;;;;;;8.43;4.85;;;;;;;32.48;25.97;98273.48;1782539;79;21195;-76
2021/06/09 10:16:27;;;;;;;7.08;4.55;;;;;;;32.73;25.20;98273.13;1756137;80;21073;-77
2021/06/09 10:19:07;;;;;;;7.42;5.08;;;;;;;33.34;24.17;98276.68;1781527;80;20982;-77
2021/06/09 10:21:43;;;;;;;7.30;4.85;;;;;;;33.36;24.49;98276.25;1782632;80;20974;-77
2021/06/09 10:24:10;;;;;;;5.87;5.22;;;;;;;31.50;27.14;98283.24;1766781;79;20978;-77
2021/06/09 10:26:38;;;;;;;6.47;5.03;;;;;;;32.78;25.81;98267.86;1751711;80;21168;-77
2021/06/09 10:29:14;;;;;;;12.30;5.17;;;;;;;34.08;25.04;98271.61;1782313;80;20895;-77
2021/06/09 10:31:51;;;;;;;6.30;4.70;;;;;;;34.41;23.92;98278.22;1782658;80;21415;-77
2021/06/09 10:34:17;;;;;;;5.17;4.67;;;;;;;32.00;26.08;98280.80;1782479;80;20947;-77
2021/06/09 10:36:47;;;;;;;8.60;4.90;;;;;;;30.33;29.05;98279.89;1782684;80;21052;-77
2021/06/09 10:39:14;;;;;;;11.53;5.55;;;;;;;29.13;30.06;98282.97;1757175;80;21144;-77
2021/06/09 10:41:43;;;;;;;9.40;5.80;;;;;;;28.46;31.79;98282.19;1783262;80;21459;-77
2021/06/09 10:44:09;;;;;;;14.58;6.17;;;;;;;27.68;32.94;98276.92;1756258;80;21490;-77
2021/06/09 10:46:39;;;;;;;13.38;6.78;;;;;;;27.21;34.98;98286.87;1782615;80;21029;-77
2021/06/09 10:49:05;;;;;;;16.07;6.70;;;;;;;26.75;35.13;98287.77;1782408;80;20939;-77
2021/06/09 10:51:31;;;;;;;8.53;5.92;;;;;;;26.50;35.38;98288.88;1782737;80;21254;-77
2021/06/09 10:53:59;;;;;;;10.63;6.62;;;;;;;26.30;35.76;98283.22;1782518;80;21045;-77
2021/06/09 10:56:25;;;;;;;;;;;;;;;26.02;36.72;98291.38;1785650;80;20987;-77
2021/06/09 10:58:51;;;;;;;9.63;6.40;;;;;;;25.71;37.18;98284.17;1782758;80;20190;-77
2021/06/09 11:01:24;;;;;;;9.20;6.17;;;;;;;25.49;38.29;98280.26;1782656;80;21584;-77
2021/06/09 11:03:52;;;;;;;7.58;5.53;;;;;;;25.35;38.17;98278.63;1789589;80;21054;-77
2021/06/09 11:06:18;;;;;;;;;;;;;;;25.39;38.41;98282.28;1766932;80;21056;-76
2021/06/09 11:08:44;;;;;;;8.53;6.17;;;;;;;25.25;39.88;98276.48;1794861;80;20245;-76
2021/06/09 11:11:20;;;;;;;7.15;5.72;;;;;;;25.25;39.62;98279.26;1794934;80;20902;-76
2021/06/09 11:13:47;;;;;;;8.28;5.90;;;;;;;25.50;40.16;98274.92;1794536;80;20902;-76
2021/06/09 11:16:16;;;;;;;13.78;6.58;;;;;;;25.78;40.48;98275.16;1794907;80;21270;-76
2021/06/09 11:18:46;;;;;;;63.48;9.08;;;;;;;28.44;35.99;98268.42;1794551;80;20926;-76
2021/06/09 11:21:18;;;;;;;8.00;5.30;;;;;;;30.86;32.86;98262.11;1794351;80;20977;-76
2021/06/09 11:23:45;;;;;;;29.70;6.97;;;;;;;32.51;29.25;98257.22;1789847;80;20946;-76
2021/06/09 11:26:30;;;;;;;7.92;4.55;;;;;;;31.92;29.89;98265.27;1794882;80;21442;-76
2021/06/09 11:28:56;;;;;;;8.70;5.33;;;;;;;30.73;30.15;98260.17;1794740;80;21262;-77
2021/06/09 11:31:25;;;;;;;12.37;4.95;;;;;;;29.90;30.06;98255.44;1794796;80;20881;-77
2021/06/09 11:34:01;;;;;;;17.40;6.80;;;;;;;28.93;31.37;98249.67;1794902;80;20974;-77